sensor_id;sensor_type;location;lat;lon;timestamp;P1;durP1;ratioP1;P2;durP2;ratioP2
35693;SDS011;21812;55.536;37.664;2023-06-05T00:02:17;6.45;;;3.58;;
35693;SDS011;21812;55.536;37.664;2023-06-05T00:04:43;4.63;;;2.90;;
35693;SDS011;21812;55.536;37.664;2023-06-05T00:07:09;5.25;;;3.15;;
35693;SDS011;21812;55.536;37.664;2023-06-05T00:09:35;4.18;;;3.13;;
35693;SDS011;21812;55.536;37.664;2023-06-05T00:12:02;4.95;;;2.90;;
35693;SDS011;21812;55.536;37.664;2023-06-05T00:14:28;6.80;;;2.65;;
35693;SDS011;21812;55.536;37.664;2023-06-05T00:16:54;6.03;;;3.03;;
35693;SDS011;21812;55.536;37.664;2023-06-05T00:19:21;5.70;;;2.50;;
35693;SDS011;21812;55.536;37.664;2023-06-05T00:21:47;3.97;;;2.58;;
35693;SDS011;21812;55.536;37.664;2023-06-05T00:24:16;8.20;;;2.85;;
35693;SDS011;21812;55.536;37.664;2023-06-05T00:26:41;5.43;;;2.85;;
35693;SDS011;21812;55.536;37.664;2023-06-05T00:29:07;5.32;;;2.30;;
35693;SDS011;21812;55.536;37.664;2023-06-05T00:31:33;6.15;;;3.08;;
35693;SDS011;21812;55.536;37.664;2023-06-05T00:33:59;4.97;;;3.13;;
35693;SDS011;21812;55.536;37.664;2023-06-05T00:36:25;3.20;;;2.20;;
35693;SDS011;21812;55.536;37.664;2023-06-05T00:38:51;2.88;;;2.28;;
35693;SDS011;21812;55.536;37.664;2023-06-05T00:41:16;7.68;;;2.65;;
35693;SDS011;21812;55.536;37.664;2023-06-05T00:43:42;3.60;;;2.15;;
35693;SDS011;21812;55.536;37.664;2023-06-05T00:46:08;7.72;;;2.17;;
35693;SDS011;21812;55.536;37.664;2023-06-05T00:48:36;4.30;;;1.80;;
35693;SDS011;21812;55.536;37.664;2023-06-05T00:51:03;4.85;;;2.20;;
35693;SDS011;21812;55.536;37.664;2023-06-05T00:53:29;4.57;;;2.22;;
35693;SDS011;21812;55.536;37.664;2023-06-05T00:55:58;5.70;;;2.80;;
35693;SDS011;21812;55.536;37.664;2023-06-05T00:58:24;3.85;;;2.28;;
35693;SDS011;21812;55.536;37.664;2023-06-05T01:00:51;7.82;;;3.03;;
35693;SDS011;21812;55.536;37.664;2023-06-05T01:03:19;10.15;;;3.45;;
35693;SDS011;21812;55.536;37.664;2023-06-05T01:05:49;5.03;;;2.00;;
35693;SDS011;21812;55.536;37.664;2023-06-05T01:08:15;3.97;;;2.40;;
35693;SDS011;21812;55.536;37.664;2023-06-05T01:10:43;3.85;;;1.88;;
35693;SDS011;21812;55.536;37.664;2023-06-05T01:13:30;6.95;;;2.25;;
35693;SDS011;21812;55.536;37.664;2023-06-05T01:15:57;3.47;;;2.15;;
35693;SDS011;21812;55.536;37.664;2023-06-05T01:18:24;5.47;;;2.75;;
35693;SDS011;21812;55.536;37.664;2023-06-05T01:20:50;7.47;;;2.30;;
35693;SDS011;21812;55.536;37.664;2023-06-05T01:23:16;3.15;;;2.30;;
35693;SDS011;21812;55.536;37.664;2023-06-05T01:25:42;3.90;;;2.00;;
35693;SDS011;21812;55.536;37.664;2023-06-05T01:28:10;3.40;;;2.10;;
35693;SDS011;21812;55.536;37.664;2023-06-05T01:33:33;3.15;;;2.30;;
35693;SDS011;21812;55.536;37.664;2023-06-05T01:36:10;3.33;;;2.20;;
35693;SDS011;21812;55.536;37.664;2023-06-05T01:38:38;6.35;;;2.50;;
35693;SDS011;21812;55.536;37.664;2023-06-05T01:41:06;6.00;;;2.63;;
35693;SDS011;21812;55.536;37.664;2023-06-05T01:43:33;5.72;;;2.70;;
35693;SDS011;21812;55.536;37.664;2023-06-05T01:46:03;6.55;;;2.42;;
35693;SDS011;21812;55.536;37.664;2023-06-05T01:48:31;5.57;;;2.13;;
35693;SDS011;21812;55.536;37.664;2023-06-05T01:50:59;3.75;;;2.33;;
35693;SDS011;21812;55.536;37.664;2023-06-05T01:53:26;4.95;;;2.95;;
35693;SDS011;21812;55.536;37.664;2023-06-05T01:55:53;3.55;;;2.22;;
35693;SDS011;21812;55.536;37.664;2023-06-05T01:58:23;4.32;;;2.63;;
35693;SDS011;21812;55.536;37.664;2023-06-05T02:00:50;6.57;;;2.40;;
35693;SDS011;21812;55.536;37.664;2023-06-05T02:03:18;4.30;;;2.17;;
35693;SDS011;21812;55.536;37.664;2023-06-05T02:05:45;5.55;;;2.95;;
35693;SDS011;21812;55.536;37.664;2023-06-05T02:08:11;3.75;;;2.40;;
35693;SDS011;21812;55.536;37.664;2023-06-05T02:10:39;7.13;;;2.95;;
35693;SDS011;21812;55.536;37.664;2023-06-05T02:13:10;4.15;;;1.88;;
35693;SDS011;21812;55.536;37.664;2023-06-05T02:15:37;4.47;;;3.25;;
35693;SDS011;21812;55.536;37.664;2023-06-05T02:18:03;5.55;;;3.08;;
35693;SDS011;21812;55.536;37.664;2023-06-05T02:20:31;6.88;;;3.45;;
35693;SDS011;21812;55.536;37.664;2023-06-05T02:22:58;4.03;;;2.17;;
35693;SDS011;21812;55.536;37.664;2023-06-05T02:25:25;6.45;;;2.33;;
35693;SDS011;21812;55.536;37.664;2023-06-05T02:27:54;5.28;;;2.78;;
35693;SDS011;21812;55.536;37.664;2023-06-05T02:30:21;4.72;;;2.30;;
35693;SDS011;21812;55.536;37.664;2023-06-05T02:32:49;2.72;;;2.10;;
35693;SDS011;21812;55.536;37.664;2023-06-05T02:35:22;6.25;;;2.70;;
35693;SDS011;21812;55.536;37.664;2023-06-05T02:37:49;3.85;;;2.67;;
35693;SDS011;21812;55.536;37.664;2023-06-05T02:40:15;4.22;;;2.25;;
35693;SDS011;21812;55.536;37.664;2023-06-05T02:42:41;5.68;;;2.30;;
35693;SDS011;21812;55.536;37.664;2023-06-05T02:45:08;6.85;;;2.80;;
35693;SDS011;21812;55.536;37.664;2023-06-05T02:47:35;3.88;;;2.20;;
35693;SDS011;21812;55.536;37.664;2023-06-05T02:50:01;5.47;;;2.88;;
35693;SDS011;21812;55.536;37.664;2023-06-05T02:52:32;3.63;;;2.30;;
35693;SDS011;21812;55.536;37.664;2023-06-05T02:55:01;3.20;;;1.98;;
35693;SDS011;21812;55.536;37.664;2023-06-05T02:57:30;4.20;;;2.15;;
35693;SDS011;21812;55.536;37.664;2023-06-05T02:59:56;5.97;;;2.78;;
35693;SDS011;21812;55.536;37.664;2023-06-05T03:02:22;1.80;;;1.58;;
35693;SDS011;21812;55.536;37.664;2023-06-05T03:04:50;7.95;;;2.42;;
35693;SDS011;21812;55.536;37.664;2023-06-05T03:07:21;4.85;;;2.33;;
35693;SDS011;21812;55.536;37.664;2023-06-05T03:09:49;3.13;;;2.13;;
35693;SDS011;21812;55.536;37.664;2023-06-05T03:12:14;4.15;;;2.38;;
35693;SDS011;21812;55.536;37.664;2023-06-05T03:14:41;3.50;;;1.95;;
35693;SDS011;21812;55.536;37.664;2023-06-05T03:17:07;4.32;;;1.90;;
35693;SDS011;21812;55.536;37.664;2023-06-05T03:19:33;4.28;;;2.42;;
35693;SDS011;21812;55.536;37.664;2023-06-05T03:22:01;4.50;;;2.38;;
35693;SDS011;21812;55.536;37.664;2023-06-05T03:24:28;2.28;;;1.80;;
35693;SDS011;21812;55.536;37.664;2023-06-05T03:27:00;4.50;;;2.25;;
35693;SDS011;21812;55.536;37.664;2023-06-05T03:29:26;4.35;;;2.10;;
35693;SDS011;21812;55.536;37.664;2023-06-05T03:31:52;3.78;;;2.65;;
35693;SDS011;21812;55.536;37.664;2023-06-05T03:34:18;3.42;;;1.92;;
35693;SDS011;21812;55.536;37.664;2023-06-05T03:36:44;3.42;;;2.10;;
35693;SDS011;21812;55.536;37.664;2023-06-05T03:39:12;8.30;;;2.28;;
35693;SDS011;21812;55.536;37.664;2023-06-05T03:41:40;10.15;;;1.70;;
35693;SDS011;21812;55.536;37.664;2023-06-05T03:44:06;3.33;;;2.13;;
35693;SDS011;21812;55.536;37.664;2023-06-05T03:46:34;3.00;;;1.52;;
35693;SDS011;21812;55.536;37.664;2023-06-05T03:49:02;5.85;;;2.90;;
35693;SDS011;21812;55.536;37.664;2023-06-05T03:51:35;6.03;;;1.70;;
35693;SDS011;21812;55.536;37.664;2023-06-05T03:54:02;5.82;;;1.92;;
35693;SDS011;21812;55.536;37.664;2023-06-05T03:56:29;3.67;;;1.95;;
35693;SDS011;21812;55.536;37.664;2023-06-05T03:59:08;3.25;;;1.70;;
35693;SDS011;21812;55.536;37.664;2023-06-05T04:01:36;9.30;;;2.88;;
35693;SDS011;21812;55.536;37.664;2023-06-05T04:04:03;6.00;;;2.70;;
35693;SDS011;21812;55.536;37.664;2023-06-05T04:06:35;3.38;;;1.80;;
35693;SDS011;21812;55.536;37.664;2023-06-05T04:09:03;8.05;;;2.95;;
35693;SDS011;21812;55.536;37.664;2023-06-05T04:11:40;7.85;;;2.90;;
35693;SDS011;21812;55.536;37.664;2023-06-05T04:14:06;5.43;;;2.10;;
35693;SDS011;21812;55.536;37.664;2023-06-05T04:16:33;8.23;;;4.35;;
35693;SDS011;21812;55.536;37.664;2023-06-05T04:19:00;3.83;;;2.00;;
35693;SDS011;21812;55.536;37.664;2023-06-05T04:21:27;3.75;;;2.35;;
35693;SDS011;21812;55.536;37.664;2023-06-05T04:23:53;2.47;;;1.60;;
35693;SDS011;21812;55.536;37.664;2023-06-05T04:26:19;3.25;;;2.10;;
35693;SDS011;21812;55.536;37.664;2023-06-05T04:28:46;4.05;;;1.73;;
35693;SDS011;21812;55.536;37.664;2023-06-05T04:31:16;4.93;;;2.00;;
35693;SDS011;21812;55.536;37.664;2023-06-05T04:33:42;2.83;;;1.90;;
35693;SDS011;21812;55.536;37.664;2023-06-05T04:36:08;2.63;;;2.13;;
35693;SDS011;21812;55.536;37.664;2023-06-05T04:38:34;6.78;;;1.80;;
35693;SDS011;21812;55.536;37.664;2023-06-05T04:41:00;2.53;;;1.63;;
35693;SDS011;21812;55.536;37.664;2023-06-05T04:43:26;4.15;;;2.33;;
35693;SDS011;21812;55.536;37.664;2023-06-05T04:45:52;4.72;;;1.90;;
35693;SDS011;21812;55.536;37.664;2023-06-05T04:48:20;3.70;;;1.88;;
35693;SDS011;21812;55.536;37.664;2023-06-05T04:50:45;4.25;;;1.58;;
35693;SDS011;21812;55.536;37.664;2023-06-05T04:53:13;2.42;;;1.77;;
35693;SDS011;21812;55.536;37.664;2023-06-05T04:55:41;6.85;;;1.92;;
35693;SDS011;21812;55.536;37.664;2023-06-05T04:58:07;6.75;;;1.80;;
35693;SDS011;21812;55.536;37.664;2023-06-05T05:00:32;3.75;;;3.17;;
35693;SDS011;21812;55.536;37.664;2023-06-05T05:03:02;8.60;;;1.88;;
35693;SDS011;21812;55.536;37.664;2023-06-05T05:05:28;8.82;;;2.67;;
35693;SDS011;21812;55.536;37.664;2023-06-05T05:07:55;5.03;;;1.80;;
35693;SDS011;21812;55.536;37.664;2023-06-05T05:10:21;7.47;;;2.80;;
35693;SDS011;21812;55.536;37.664;2023-06-05T05:12:47;7.95;;;2.10;;
35693;SDS011;21812;55.536;37.664;2023-06-05T05:15:14;5.55;;;1.85;;
35693;SDS011;21812;55.536;37.664;2023-06-05T05:17:40;6.40;;;2.63;;
35693;SDS011;21812;55.536;37.664;2023-06-05T05:20:07;6.90;;;1.90;;
35693;SDS011;21812;55.536;37.664;2023-06-05T05:22:35;4.82;;;2.22;;
35693;SDS011;21812;55.536;37.664;2023-06-05T05:25:01;5.22;;;2.00;;
35693;SDS011;21812;55.536;37.664;2023-06-05T05:27:29;3.50;;;1.95;;
35693;SDS011;21812;55.536;37.664;2023-06-05T05:29:56;4.35;;;2.00;;
35693;SDS011;21812;55.536;37.664;2023-06-05T05:32:22;2.50;;;1.75;;
35693;SDS011;21812;55.536;37.664;2023-06-05T05:34:48;3.28;;;1.73;;
35693;SDS011;21812;55.536;37.664;2023-06-05T05:37:16;4.50;;;2.42;;
35693;SDS011;21812;55.536;37.664;2023-06-05T05:39:42;2.90;;;1.50;;
35693;SDS011;21812;55.536;37.664;2023-06-05T05:42:07;3.75;;;1.77;;
35693;SDS011;21812;55.536;37.664;2023-06-05T05:44:33;7.05;;;1.75;;
35693;SDS011;21812;55.536;37.664;2023-06-05T05:46:59;5.38;;;2.15;;
35693;SDS011;21812;55.536;37.664;2023-06-05T05:49:24;4.65;;;2.17;;
35693;SDS011;21812;55.536;37.664;2023-06-05T05:51:50;3.63;;;1.70;;
35693;SDS011;21812;55.536;37.664;2023-06-05T05:54:16;5.05;;;1.73;;
35693;SDS011;21812;55.536;37.664;2023-06-05T05:56:42;5.38;;;1.90;;
35693;SDS011;21812;55.536;37.664;2023-06-05T05:59:08;7.20;;;2.35;;
35693;SDS011;21812;55.536;37.664;2023-06-05T06:01:33;4.38;;;1.73;;
35693;SDS011;21812;55.536;37.664;2023-06-05T06:03:59;4.55;;;2.20;;
35693;SDS011;21812;55.536;37.664;2023-06-05T06:06:25;3.63;;;2.33;;
35693;SDS011;21812;55.536;37.664;2023-06-05T06:08:51;3.80;;;1.58;;
35693;SDS011;21812;55.536;37.664;2023-06-05T06:11:17;5.65;;;1.70;;
35693;SDS011;21812;55.536;37.664;2023-06-05T06:13:44;2.72;;;1.70;;
35693;SDS011;21812;55.536;37.664;2023-06-05T06:16:09;3.25;;;1.98;;
35693;SDS011;21812;55.536;37.664;2023-06-05T06:18:36;3.47;;;1.70;;
35693;SDS011;21812;55.536;37.664;2023-06-05T06:21:01;3.08;;;1.77;;
35693;SDS011;21812;55.536;37.664;2023-06-05T06:23:28;5.28;;;2.35;;
35693;SDS011;21812;55.536;37.664;2023-06-05T06:25:54;3.38;;;1.92;;
35693;SDS011;21812;55.536;37.664;2023-06-05T06:28:20;3.75;;;1.88;;
35693;SDS011;21812;55.536;37.664;2023-06-05T06:30:46;3.22;;;1.52;;
35693;SDS011;21812;55.536;37.664;2023-06-05T06:33:11;2.00;;;1.27;;
35693;SDS011;21812;55.536;37.664;2023-06-05T06:35:37;3.15;;;1.50;;
35693;SDS011;21812;55.536;37.664;2023-06-05T06:38:04;3.63;;;1.58;;
35693;SDS011;21812;55.536;37.664;2023-06-05T06:40:29;4.22;;;1.42;;
35693;SDS011;21812;55.536;37.664;2023-06-05T06:42:55;3.05;;;1.55;;
35693;SDS011;21812;55.536;37.664;2023-06-05T06:45:47;5.35;;;1.73;;
35693;SDS011;21812;55.536;37.664;2023-06-05T06:48:15;4.78;;;1.30;;
35693;SDS011;21812;55.536;37.664;2023-06-05T06:50:42;4.10;;;2.10;;
35693;SDS011;21812;55.536;37.664;2023-06-05T06:53:08;4.13;;;1.48;;
35693;SDS011;21812;55.536;37.664;2023-06-05T06:55:34;2.13;;;1.10;;
35693;SDS011;21812;55.536;37.664;2023-06-05T06:58:00;3.35;;;1.20;;
35693;SDS011;21812;55.536;37.664;2023-06-05T07:00:26;1.75;;;1.20;;
35693;SDS011;21812;55.536;37.664;2023-06-05T07:02:51;3.00;;;1.60;;
35693;SDS011;21812;55.536;37.664;2023-06-05T07:05:17;3.85;;;1.50;;
35693;SDS011;21812;55.536;37.664;2023-06-05T07:07:45;2.85;;;1.00;;
35693;SDS011;21812;55.536;37.664;2023-06-05T07:10:11;2.50;;;1.60;;
35693;SDS011;21812;55.536;37.664;2023-06-05T07:12:36;1.65;;;1.23;;
35693;SDS011;21812;55.536;37.664;2023-06-05T07:15:02;7.28;;;1.80;;
35693;SDS011;21812;55.536;37.664;2023-06-05T07:17:30;2.13;;;1.20;;
35693;SDS011;21812;55.536;37.664;2023-06-05T07:19:56;2.60;;;1.20;;
35693;SDS011;21812;55.536;37.664;2023-06-05T07:22:22;2.28;;;1.25;;
35693;SDS011;21812;55.536;37.664;2023-06-05T07:24:52;3.53;;;1.08;;
35693;SDS011;21812;55.536;37.664;2023-06-05T07:27:21;1.77;;;1.20;;
35693;SDS011;21812;55.536;37.664;2023-06-05T07:29:48;2.67;;;1.00;;
35693;SDS011;21812;55.536;37.664;2023-06-05T07:32:14;8.93;;;1.15;;
35693;SDS011;21812;55.536;37.664;2023-06-05T07:34:40;2.22;;;1.23;;
35693;SDS011;21812;55.536;37.664;2023-06-05T07:37:06;1.60;;;1.20;;
35693;SDS011;21812;55.536;37.664;2023-06-05T07:39:34;1.52;;;1.17;;
35693;SDS011;21812;55.536;37.664;2023-06-05T07:42:00;2.75;;;1.00;;
35693;SDS011;21812;55.536;37.664;2023-06-05T07:44:26;7.28;;;1.65;;
35693;SDS011;21812;55.536;37.664;2023-06-05T07:46:52;3.75;;;1.23;;
35693;SDS011;21812;55.536;37.664;2023-06-05T07:49:18;3.40;;;1.27;;
35693;SDS011;21812;55.536;37.664;2023-06-05T07:51:45;1.63;;;1.17;;
35693;SDS011;21812;55.536;37.664;2023-06-05T07:54:13;3.20;;;0.90;;
35693;SDS011;21812;55.536;37.664;2023-06-05T07:56:40;1.95;;;1.15;;
35693;SDS011;21812;55.536;37.664;2023-06-05T07:59:07;3.17;;;0.93;;
35693;SDS011;21812;55.536;37.664;2023-06-05T08:01:33;1.85;;;0.85;;
35693;SDS011;21812;55.536;37.664;2023-06-05T08:04:04;2.53;;;1.05;;
35693;SDS011;21812;55.536;37.664;2023-06-05T08:06:30;2.83;;;1.40;;
35693;SDS011;21812;55.536;37.664;2023-06-05T08:09:01;3.58;;;1.10;;
35693;SDS011;21812;55.536;37.664;2023-06-05T08:11:27;1.88;;;0.98;;
35693;SDS011;21812;55.536;37.664;2023-06-05T08:13:54;2.45;;;0.95;;
35693;SDS011;21812;55.536;37.664;2023-06-05T08:16:20;1.73;;;0.93;;
35693;SDS011;21812;55.536;37.664;2023-06-05T08:18:46;3.45;;;1.38;;
35693;SDS011;21812;55.536;37.664;2023-06-05T08:21:13;3.42;;;1.20;;
35693;SDS011;21812;55.536;37.664;2023-06-05T08:23:38;3.33;;;1.02;;
35693;SDS011;21812;55.536;37.664;2023-06-05T08:26:04;4.13;;;1.00;;
35693;SDS011;21812;55.536;37.664;2023-06-05T08:28:41;2.60;;;1.20;;
35693;SDS011;21812;55.536;37.664;2023-06-05T08:31:07;2.83;;;1.52;;
35693;SDS011;21812;55.536;37.664;2023-06-05T08:33:35;1.15;;;0.80;;
35693;SDS011;21812;55.536;37.664;2023-06-05T08:36:01;6.18;;;1.00;;
35693;SDS011;21812;55.536;37.664;2023-06-05T08:38:31;2.10;;;1.10;;
35693;SDS011;21812;55.536;37.664;2023-06-05T08:41:01;1.15;;;0.95;;
35693;SDS011;21812;55.536;37.664;2023-06-05T08:43:31;4.43;;;1.30;;
35693;SDS011;21812;55.536;37.664;2023-06-05T08:45:57;2.70;;;1.02;;
35693;SDS011;21812;55.536;37.664;2023-06-05T08:48:26;3.65;;;1.00;;
35693;SDS011;21812;55.536;37.664;2023-06-05T08:50:57;2.78;;;0.98;;
35693;SDS011;21812;55.536;37.664;2023-06-05T08:53:24;1.55;;;1.00;;
35693;SDS011;21812;55.536;37.664;2023-06-05T08:55:54;3.50;;;1.10;;
35693;SDS011;21812;55.536;37.664;2023-06-05T08:58:21;3.78;;;0.93;;
35693;SDS011;21812;55.536;37.664;2023-06-05T09:00:48;1.45;;;1.00;;
35693;SDS011;21812;55.536;37.664;2023-06-05T09:03:14;1.55;;;0.95;;
35693;SDS011;21812;55.536;37.664;2023-06-05T09:05:46;1.88;;;0.95;;
35693;SDS011;21812;55.536;37.664;2023-06-05T09:08:13;2.08;;;0.95;;
35693;SDS011;21812;55.536;37.664;2023-06-05T09:10:41;1.48;;;0.90;;
35693;SDS011;21812;55.536;37.664;2023-06-05T09:13:07;1.25;;;0.80;;
35693;SDS011;21812;55.536;37.664;2023-06-05T09:15:33;2.25;;;0.85;;
35693;SDS011;21812;55.536;37.664;2023-06-05T09:20:37;3.58;;;0.70;;
35693;SDS011;21812;55.536;37.664;2023-06-05T09:23:20;3.90;;;0.90;;
35693;SDS011;21812;55.536;37.664;2023-06-05T09:25:52;2.70;;;1.23;;
35693;SDS011;21812;55.536;37.664;2023-06-05T09:28:19;1.77;;;1.00;;
35693;SDS011;21812;55.536;37.664;2023-06-05T09:30:54;1.65;;;1.20;;
35693;SDS011;21812;55.536;37.664;2023-06-05T09:33:23;4.72;;;1.13;;
35693;SDS011;21812;55.536;37.664;2023-06-05T09:38:31;2.22;;;1.00;;
35693;SDS011;21812;55.536;37.664;2023-06-05T09:41:04;0.88;;;0.77;;
35693;SDS011;21812;55.536;37.664;2023-06-05T09:43:34;3.42;;;1.33;;
35693;SDS011;21812;55.536;37.664;2023-06-05T09:46:09;1.85;;;1.13;;
35693;SDS011;21812;55.536;37.664;2023-06-05T09:48:38;1.52;;;0.88;;
35693;SDS011;21812;55.536;37.664;2023-06-05T09:51:23;2.03;;;1.00;;
35693;SDS011;21812;55.536;37.664;2023-06-05T09:56:15;4.25;;;1.00;;
35693;SDS011;21812;55.536;37.664;2023-06-05T09:58:46;1.33;;;0.82;;
35693;SDS011;21812;55.536;37.664;2023-06-05T10:01:17;1.60;;;0.95;;
35693;SDS011;21812;55.536;37.664;2023-06-05T10:04:01;1.38;;;0.90;;
35693;SDS011;21812;55.536;37.664;2023-06-05T10:06:34;2.90;;;0.90;;
35693;SDS011;21812;55.536;37.664;2023-06-05T10:09:02;4.22;;;1.00;;
35693;SDS011;21812;55.536;37.664;2023-06-05T10:11:28;1.70;;;1.00;;
35693;SDS011;21812;55.536;37.664;2023-06-05T10:13:55;1.55;;;0.90;;
35693;SDS011;21812;55.536;37.664;2023-06-05T10:16:25;1.77;;;0.88;;
35693;SDS011;21812;55.536;37.664;2023-06-05T10:18:56;3.33;;;1.40;;
35693;SDS011;21812;55.536;37.664;2023-06-05T10:21:23;2.35;;;1.40;;
35693;SDS011;21812;55.536;37.664;2023-06-05T10:24:02;3.55;;;0.98;;
35693;SDS011;21812;55.536;37.664;2023-06-05T10:26:54;1.33;;;1.23;;
35693;SDS011;21812;55.536;37.664;2023-06-05T10:34:58;3.53;;;1.00;;
35693;SDS011;21812;55.536;37.664;2023-06-05T10:40:05;1.45;;;0.90;;
35693;SDS011;21812;55.536;37.664;2023-06-05T10:42:31;1.13;;;0.85;;
35693;SDS011;21812;55.536;37.664;2023-06-05T10:44:59;3.63;;;1.10;;
35693;SDS011;21812;55.536;37.664;2023-06-05T10:48:07;1.20;;;0.85;;
35693;SDS011;21812;55.536;37.664;2023-06-05T10:52:44;1.92;;;0.82;;
35693;SDS011;21812;55.536;37.664;2023-06-05T10:55:11;1.48;;;0.88;;
35693;SDS011;21812;55.536;37.664;2023-06-05T11:03:53;1.95;;;0.85;;
35693;SDS011;21812;55.536;37.664;2023-06-05T11:06:18;1.23;;;0.80;;
35693;SDS011;21812;55.536;37.664;2023-06-05T11:11:58;2.03;;;1.00;;
35693;SDS011;21812;55.536;37.664;2023-06-05T11:14:44;3.95;;;1.30;;
35693;SDS011;21812;55.536;37.664;2023-06-05T11:17:52;1.75;;;1.02;;
35693;SDS011;21812;55.536;37.664;2023-06-05T11:20:00;2.33;;;1.10;;
35693;SDS011;21812;55.536;37.664;2023-06-05T11:27:51;2.72;;;1.20;;
35693;SDS011;21812;55.536;37.664;2023-06-05T11:30:46;2.75;;;1.08;;
35693;SDS011;21812;55.536;37.664;2023-06-05T11:33:12;1.45;;;1.05;;
35693;SDS011;21812;55.536;37.664;2023-06-05T11:35:41;3.20;;;0.75;;
35693;SDS011;21812;55.536;37.664;2023-06-05T11:38:09;1.77;;;0.90;;
35693;SDS011;21812;55.536;37.664;2023-06-05T11:40:39;1.95;;;0.93;;
35693;SDS011;21812;55.536;37.664;2023-06-05T11:43:07;2.20;;;1.40;;
35693;SDS011;21812;55.536;37.664;2023-06-05T11:45:35;2.17;;;0.90;;
35693;SDS011;21812;55.536;37.664;2023-06-05T11:50:32;1.08;;;0.70;;
35693;SDS011;21812;55.536;37.664;2023-06-05T11:53:07;2.38;;;0.90;;
35693;SDS011;21812;55.536;37.664;2023-06-05T11:55:34;3.78;;;1.00;;
35693;SDS011;21812;55.536;37.664;2023-06-05T11:58:27;6.60;;;0.88;;
35693;SDS011;21812;55.536;37.664;2023-06-05T12:01:04;3.05;;;1.13;;
35693;SDS011;21812;55.536;37.664;2023-06-05T12:03:33;7.00;;;1.30;;
35693;SDS011;21812;55.536;37.664;2023-06-05T12:06:00;7.28;;;1.45;;
35693;SDS011;21812;55.536;37.664;2023-06-05T12:08:28;3.00;;;1.65;;
35693;SDS011;21812;55.536;37.664;2023-06-05T12:10:57;3.55;;;1.35;;
35693;SDS011;21812;55.536;37.664;2023-06-05T12:16:18;6.80;;;2.97;;
35693;SDS011;21812;55.536;37.664;2023-06-05T12:18:45;9.60;;;4.05;;
35693;SDS011;21812;55.536;37.664;2023-06-05T12:21:25;7.30;;;2.70;;
35693;SDS011;21812;55.536;37.664;2023-06-05T12:24:03;5.25;;;2.30;;
35693;SDS011;21812;55.536;37.664;2023-06-05T12:29:19;2.42;;;1.58;;
35693;SDS011;21812;55.536;37.664;2023-06-05T12:31:47;4.30;;;1.25;;
35693;SDS011;21812;55.536;37.664;2023-06-05T12:34:13;1.90;;;1.50;;
35693;SDS011;21812;55.536;37.664;2023-06-05T12:36:40;2.67;;;1.05;;
35693;SDS011;21812;55.536;37.664;2023-06-05T12:39:13;3.20;;;1.52;;
35693;SDS011;21812;55.536;37.664;2023-06-05T12:41:41;2.17;;;0.80;;
35693;SDS011;21812;55.536;37.664;2023-06-05T12:44:07;2.95;;;1.58;;
35693;SDS011;21812;55.536;37.664;2023-06-05T12:46:34;3.65;;;1.40;;
35693;SDS011;21812;55.536;37.664;2023-06-05T12:49:01;10.27;;;1.50;;
35693;SDS011;21812;55.536;37.664;2023-06-05T12:51:28;5.13;;;1.27;;
35693;SDS011;21812;55.536;37.664;2023-06-05T12:53:55;3.30;;;1.40;;
35693;SDS011;21812;55.536;37.664;2023-06-05T12:56:22;3.80;;;1.15;;
35693;SDS011;21812;55.536;37.664;2023-06-05T12:58:55;5.57;;;1.48;;
35693;SDS011;21812;55.536;37.664;2023-06-05T13:01:22;4.30;;;1.20;;
35693;SDS011;21812;55.536;37.664;2023-06-05T13:03:49;4.63;;;1.27;;
35693;SDS011;21812;55.536;37.664;2023-06-05T13:06:16;2.35;;;1.48;;
35693;SDS011;21812;55.536;37.664;2023-06-05T13:08:42;2.65;;;1.05;;
35693;SDS011;21812;55.536;37.664;2023-06-05T13:11:08;5.28;;;1.30;;
35693;SDS011;21812;55.536;37.664;2023-06-05T13:13:33;4.38;;;1.38;;
35693;SDS011;21812;55.536;37.664;2023-06-05T13:16:00;1.83;;;1.30;;
35693;SDS011;21812;55.536;37.664;2023-06-05T13:18:27;6.25;;;1.35;;
35693;SDS011;21812;55.536;37.664;2023-06-05T13:20:54;3.72;;;1.30;;
35693;SDS011;21812;55.536;37.664;2023-06-05T13:23:20;3.35;;;1.38;;
35693;SDS011;21812;55.536;37.664;2023-06-05T13:25:46;1.83;;;1.20;;
35693;SDS011;21812;55.536;37.664;2023-06-05T13:28:12;3.35;;;1.58;;
35693;SDS011;21812;55.536;37.664;2023-06-05T13:30:38;4.40;;;2.63;;
35693;SDS011;21812;55.536;37.664;2023-06-05T13:33:03;1.92;;;1.30;;
35693;SDS011;21812;55.536;37.664;2023-06-05T13:35:29;3.13;;;1.77;;
35693;SDS011;21812;55.536;37.664;2023-06-05T13:37:55;3.05;;;2.15;;
35693;SDS011;21812;55.536;37.664;2023-06-05T13:40:20;2.33;;;1.55;;
35693;SDS011;21812;55.536;37.664;2023-06-05T13:42:46;4.40;;;1.50;;
35693;SDS011;21812;55.536;37.664;2023-06-05T13:45:13;3.95;;;1.52;;
35693;SDS011;21812;55.536;37.664;2023-06-05T13:47:39;8.27;;;1.48;;
35693;SDS011;21812;55.536;37.664;2023-06-05T13:50:05;2.05;;;1.00;;
35693;SDS011;21812;55.536;37.664;2023-06-05T13:52:31;3.88;;;1.55;;
35693;SDS011;21812;55.536;37.664;2023-06-05T13:54:57;3.00;;;1.42;;
35693;SDS011;21812;55.536;37.664;2023-06-05T13:57:23;3.97;;;1.40;;
35693;SDS011;21812;55.536;37.664;2023-06-05T13:59:48;9.95;;;1.45;;
35693;SDS011;21812;55.536;37.664;2023-06-05T14:02:14;3.08;;;1.40;;
35693;SDS011;21812;55.536;37.664;2023-06-05T14:04:40;2.38;;;1.27;;
35693;SDS011;21812;55.536;37.664;2023-06-05T14:07:06;5.55;;;2.30;;
35693;SDS011;21812;55.536;37.664;2023-06-05T14:09:31;3.92;;;1.80;;
35693;SDS011;21812;55.536;37.664;2023-06-05T14:11:57;5.15;;;1.35;;
35693;SDS011;21812;55.536;37.664;2023-06-05T14:14:24;5.75;;;1.50;;
35693;SDS011;21812;55.536;37.664;2023-06-05T14:16:50;4.35;;;1.80;;
35693;SDS011;21812;55.536;37.664;2023-06-05T14:19:17;3.70;;;1.13;;
35693;SDS011;21812;55.536;37.664;2023-06-05T14:21:43;5.35;;;2.08;;
35693;SDS011;21812;55.536;37.664;2023-06-05T14:24:10;2.75;;;1.27;;
35693;SDS011;21812;55.536;37.664;2023-06-05T14:26:35;2.92;;;1.30;;
35693;SDS011;21812;55.536;37.664;2023-06-05T14:29:02;2.45;;;1.50;;
35693;SDS011;21812;55.536;37.664;2023-06-05T14:31:28;5.40;;;1.17;;
35693;SDS011;21812;55.536;37.664;2023-06-05T14:33:55;3.38;;;1.30;;
35693;SDS011;21812;55.536;37.664;2023-06-05T14:36:20;1.70;;;1.10;;
35693;SDS011;21812;55.536;37.664;2023-06-05T14:38:46;2.08;;;1.23;;
35693;SDS011;21812;55.536;37.664;2023-06-05T14:41:12;3.15;;;1.33;;
35693;SDS011;21812;55.536;37.664;2023-06-05T14:43:37;1.70;;;1.05;;
35693;SDS011;21812;55.536;37.664;2023-06-05T14:46:03;2.13;;;0.98;;
35693;SDS011;21812;55.536;37.664;2023-06-05T14:48:30;2.50;;;1.00;;
35693;SDS011;21812;55.536;37.664;2023-06-05T14:50:56;3.33;;;1.20;;
35693;SDS011;21812;55.536;37.664;2023-06-05T14:53:23;4.68;;;1.45;;
35693;SDS011;21812;55.536;37.664;2023-06-05T14:55:49;1.88;;;1.23;;
35693;SDS011;21812;55.536;37.664;2023-06-05T14:58:15;2.33;;;1.40;;
35693;SDS011;21812;55.536;37.664;2023-06-05T15:00:41;2.97;;;1.27;;
35693;SDS011;21812;55.536;37.664;2023-06-05T15:03:08;3.90;;;1.25;;
35693;SDS011;21812;55.536;37.664;2023-06-05T15:05:34;6.68;;;4.00;;
35693;SDS011;21812;55.536;37.664;2023-06-05T15:08:00;3.28;;;1.25;;
35693;SDS011;21812;55.536;37.664;2023-06-05T15:10:26;3.35;;;1.20;;
35693;SDS011;21812;55.536;37.664;2023-06-05T15:12:52;2.05;;;1.27;;
35693;SDS011;21812;55.536;37.664;2023-06-05T15:15:23;1.80;;;1.20;;
35693;SDS011;21812;55.536;37.664;2023-06-05T15:17:50;4.13;;;1.70;;
35693;SDS011;21812;55.536;37.664;2023-06-05T15:20:19;7.72;;;5.15;;
35693;SDS011;21812;55.536;37.664;2023-06-05T15:22:45;9.07;;;6.82;;